createdAt,value
2022-10-03T00:00:02.353Z,7.32
2022-10-03T00:03:49.470Z,11.10
2022-10-03T00:06:57.353Z,11.07
2022-10-03T00:10:33.185Z,9.50
2022-10-03T00:13:49.743Z,9.18
2022-10-03T00:17:02.081Z,13.93
2022-10-03T00:20:19.338Z,9.73
2022-10-03T00:23:26.691Z,8.43
2022-10-03T00:26:51.893Z,8.77
2022-10-03T00:30:08.930Z,8.98
2022-10-03T00:33:29.076Z,10.23
2022-10-03T00:36:56.306Z,7.55
2022-10-03T00:40:10.208Z,9.43
2022-10-03T00:43:23.829Z,9.23
2022-10-03T00:46:40.671Z,14.25
2022-10-03T00:50:43.870Z,8.93
2022-10-03T00:53:45.661Z,10.30
2022-10-03T00:56:53.351Z,9.40
2022-10-03T01:00:22.063Z,9.25
2022-10-03T01:03:35.923Z,8.38
2022-10-03T01:06:46.828Z,8.35
2022-10-03T01:09:59.186Z,8.57
2022-10-03T01:13:37.767Z,7.65
2022-10-03T01:16:57.807Z,9.35
2022-10-03T01:20:15.951Z,10.38
2022-10-03T01:23:55.051Z,8.30
2022-10-03T01:27:06.948Z,8.38
2022-10-03T01:30:08.966Z,8.45
2022-10-03T01:33:19.457Z,9.43
2022-10-03T01:36:32.801Z,8.15
2022-10-03T01:39:57.082Z,8.07
2022-10-03T01:43:11.135Z,8.65
2022-10-03T01:46:35.515Z,10.75
2022-10-03T01:50:01.730Z,8.32
2022-10-03T01:53:11.505Z,9.43
2022-10-03T01:56:19.405Z,8.15
2022-10-03T01:59:47.149Z,8.52
2022-10-03T02:03:10.163Z,8.57
2022-10-03T02:06:40.201Z,9.35
2022-10-03T02:09:48.933Z,8.32
2022-10-03T02:13:04.082Z,9.43
2022-10-03T02:16:43.524Z,12.45
2022-10-03T02:19:47.788Z,7.65
2022-10-03T02:22:55.619Z,9.10
2022-10-03T02:26:16.601Z,9.50
2022-10-03T02:29:48.522Z,7.45
2022-10-03T02:33:00.250Z,8.48
2022-10-03T02:36:31.544Z,10.35
2022-10-03T02:40:01.166Z,13.10
2022-10-03T02:43:49.786Z,9.18
2022-10-03T02:47:13.453Z,10.05
2022-10-03T02:50:33.273Z,8.38
2022-10-03T02:54:01.881Z,6.85
2022-10-03T02:57:37.714Z,7.53
2022-10-03T03:01:07.387Z,11.25
2022-10-03T03:04:27.978Z,7.93
2022-10-03T03:08:09.565Z,6.70
2022-10-03T03:11:56.317Z,7.03
2022-10-03T03:15:22.570Z,6.93
2022-10-03T03:18:33.384Z,8.25
2022-10-03T03:21:49.025Z,7.05
2022-10-03T03:25:19.729Z,8.70
2022-10-03T03:28:30.765Z,8.73
2022-10-03T03:32:04.899Z,6.30
2022-10-03T03:35:14.400Z,8.75
2022-10-03T03:38:30.585Z,7.63
2022-10-03T03:41:45.000Z,7.68
2022-10-03T03:44:50.036Z,8.35
2022-10-03T03:48:12.924Z,6.68
2022-10-03T03:51:41.654Z,7.80
2022-10-03T03:55:05.074Z,8.20
2022-10-03T03:58:10.097Z,8.32
2022-10-03T04:01:29.414Z,7.93
2022-10-03T04:04:45.500Z,7.85
2022-10-03T04:08:25.038Z,8.57
2022-10-03T04:11:47.519Z,6.85
2022-10-03T04:15:27.732Z,8.45
2022-10-03T04:18:41.338Z,7.93
2022-10-03T04:21:46.408Z,12.77
2022-10-03T04:25:23.408Z,8.07
2022-10-03T04:28:53.082Z,7.50
2022-10-03T04:32:07.883Z,6.30
2022-10-03T04:35:23.187Z,6.93
2022-10-03T04:38:46.181Z,7.22
2022-10-03T04:41:51.175Z,7.15
2022-10-03T04:45:31.018Z,8.07
2022-10-03T04:49:10.099Z,7.82
2022-10-03T04:52:42.389Z,7.55
2022-10-03T04:56:01.299Z,8.27
2022-10-03T04:59:36.877Z,8.50
2022-10-03T05:03:12.666Z,6.47
2022-10-03T05:06:25.669Z,7.97
2022-10-03T05:09:54.673Z,9.40
2022-10-03T05:13:07.401Z,7.30
2022-10-03T05:16:15.230Z,5.70
2022-10-03T05:19:23.090Z,5.93
2022-10-03T05:22:47.261Z,6.78
2022-10-03T05:26:44.105Z,7.97
2022-10-03T05:30:21.930Z,8.55
2022-10-03T05:33:48.619Z,11.68
2022-10-03T05:37:19.607Z,9.63
2022-10-03T05:40:30.295Z,9.60
2022-10-03T05:43:47.226Z,10.30
2022-10-03T05:47:10.555Z,12.77
2022-10-03T05:50:19.522Z,12.77
2022-10-03T05:53:55.400Z,20.38
2022-10-03T05:57:12.479Z,21.75
2022-10-03T06:00:23.243Z,14.60
2022-10-03T06:04:06.049Z,17.38
2022-10-03T06:07:25.736Z,11.43
2022-10-03T06:11:01.891Z,9.07
2022-10-03T06:14:41.532Z,11.40
2022-10-03T06:18:01.791Z,8.23
2022-10-03T06:21:15.900Z,6.72
2022-10-03T06:24:55.522Z,6.90
2022-10-03T06:28:19.830Z,6.55
2022-10-03T06:31:59.056Z,10.55
2022-10-03T06:35:22.551Z,9.70
2022-10-03T06:38:39.437Z,34.42
2022-10-03T06:42:08.291Z,24.83
2022-10-03T06:45:34.180Z,33.88
2022-10-03T06:49:14.463Z,18.02
2022-10-03T06:52:38.832Z,11.13
2022-10-03T06:56:02.839Z,9.18
2022-10-03T06:59:04.617Z,19.00
2022-10-03T07:02:20.618Z,14.75
2022-10-03T07:06:06.416Z,7.53
2022-10-03T07:09:36.273Z,24.50
2022-10-03T07:13:11.916Z,7.50
2022-10-03T07:16:54.284Z,18.63
2022-10-03T07:20:08.326Z,30.90
2022-10-03T07:23:10.164Z,16.17
2022-10-03T07:26:28.036Z,14.60
2022-10-03T07:29:48.799Z,12.90
2022-10-03T07:33:09.389Z,11.57
2022-10-03T07:36:14.020Z,13.82
2022-10-03T07:39:46.150Z,9.30
2022-10-03T07:43:12.714Z,7.20
2022-10-03T07:46:51.951Z,5.95
2022-10-03T07:50:15.679Z,6.07
2022-10-03T07:53:38.810Z,7.15
2022-10-03T07:57:18.523Z,7.03
2022-10-03T08:00:35.243Z,6.43
2022-10-03T08:04:00.764Z,9.32
2022-10-03T08:07:08.697Z,8.43
2022-10-03T08:10:48.035Z,9.15
2022-10-03T08:14:12.821Z,10.23
2022-10-03T08:17:20.740Z,9.85
2022-10-03T08:20:41.483Z,15.18
2022-10-03T08:24:11.640Z,13.35
2022-10-03T08:27:54.913Z,13.13
2022-10-03T08:31:18.667Z,15.52
2022-10-03T08:34:26.755Z,13.05
2022-10-03T08:38:02.566Z,16.70
2022-10-03T08:41:30.847Z,17.13
2022-10-03T08:45:00.891Z,18.48
2022-10-03T08:48:20.750Z,14.20
2022-10-03T08:51:31.529Z,18.40
2022-10-03T08:55:12.850Z,19.08
2022-10-03T08:58:26.201Z,18.98
2022-10-03T09:02:05.972Z,21.10
2022-10-03T09:05:19.691Z,17.60
2022-10-03T09:08:59.005Z,19.63
2022-10-03T09:12:25.463Z,18.23
2022-10-03T09:16:01.228Z,16.92
2022-10-03T09:19:21.116Z,15.35
2022-10-03T09:22:34.785Z,15.95
2022-10-03T09:26:27.248Z,16.08
2022-10-03T09:29:49.360Z,15.43
2022-10-03T09:33:24.744Z,15.35
2022-10-03T09:36:52.500Z,15.60
2022-10-03T09:40:17.120Z,15.38
2022-10-03T09:43:40.601Z,12.93
2022-10-03T09:47:12.666Z,16.75
2022-10-03T09:50:50.322Z,12.30
2022-10-03T09:54:25.249Z,12.63
2022-10-03T09:57:58.599Z,12.88
2022-10-03T10:01:37.757Z,14.85
2022-10-03T10:04:55.456Z,10.85
2022-10-03T10:08:35.874Z,12.20
2022-10-03T10:11:54.686Z,11.63
2022-10-03T10:15:17.660Z,10.20
2022-10-03T10:18:31.453Z,9.88
2022-10-03T10:21:55.247Z,12.32
2022-10-03T10:24:57.325Z,15.07
2022-10-03T10:31:45.390Z,11.25
2022-10-03T10:35:05.831Z,10.35
2022-10-03T10:38:45.038Z,8.45
2022-10-03T10:42:35.380Z,11.25
2022-10-03T10:46:18.614Z,8.20
2022-10-03T10:49:58.043Z,11.85
2022-10-03T11:03:47.764Z,10.35
2022-10-03T11:07:31.131Z,9.00
2022-10-03T11:10:34.536Z,12.40
2022-10-03T11:13:59.527Z,10.25
2022-10-03T11:17:19.621Z,10.90
2022-10-03T11:20:27.266Z,12.15
2022-10-03T11:23:52.152Z,7.88
2022-10-03T11:27:22.314Z,14.30
2022-10-03T11:30:58.429Z,9.70
2022-10-03T11:34:39.912Z,7.28
2022-10-03T11:38:05.330Z,9.48
2022-10-03T11:41:26.244Z,10.20
2022-10-03T11:44:37.037Z,7.97
2022-10-03T11:47:50.001Z,8.38
2022-10-03T11:51:17.095Z,9.60
2022-10-03T11:54:41.144Z,10.82
2022-10-03T11:57:45.960Z,8.82
2022-10-03T12:01:00.703Z,8.77
2022-10-03T12:04:44.917Z,10.60
2022-10-03T12:07:58.687Z,6.50
2022-10-03T12:11:27.584Z,6.70
2022-10-03T12:14:34.666Z,7.65
2022-10-03T12:17:39.487Z,7.20
2022-10-03T12:21:21.070Z,7.50
2022-10-03T12:24:27.822Z,6.97
2022-10-03T12:28:06.559Z,9.38
2022-10-03T12:31:30.214Z,8.35
2022-10-03T12:34:40.947Z,7.25
2022-10-03T12:37:59.726Z,7.75
2022-10-03T12:41:39.826Z,6.40
2022-10-03T12:44:55.120Z,9.43
2022-10-03T12:48:12.575Z,7.53
2022-10-03T12:51:42.584Z,7.55
2022-10-03T12:54:59.987Z,6.72
2022-10-03T12:58:52.091Z,8.02
2022-10-03T13:02:12.347Z,9.15
2022-10-03T13:08:46.276Z,8.15
2022-10-03T13:12:16.239Z,5.72
2022-10-03T13:15:58.839Z,6.65
2022-10-03T13:19:10.359Z,7.22
2022-10-03T13:22:17.850Z,8.52
2022-10-03T13:25:36.491Z,8.13
2022-10-03T13:28:47.978Z,6.75
2022-10-03T13:32:22.855Z,5.03
2022-10-03T13:35:34.000Z,6.15
2022-10-03T13:38:59.076Z,5.70
2022-10-03T13:42:13.415Z,5.85
2022-10-03T13:45:22.066Z,9.50
2022-10-03T13:48:26.961Z,8.73
2022-10-03T13:51:36.507Z,8.05
2022-10-03T13:55:01.201Z,8.07
2022-10-03T13:58:25.473Z,6.22
2022-10-03T14:01:46.301Z,5.15
2022-10-03T14:04:58.947Z,6.88
2022-10-03T14:08:10.238Z,4.82
2022-10-03T14:11:46.232Z,9.82
2022-10-03T14:15:09.019Z,6.43
2022-10-03T14:18:47.713Z,4.72
2022-10-03T14:22:16.172Z,5.85
2022-10-03T14:26:16.438Z,9.23
2022-10-03T14:30:02.586Z,7.55
2022-10-03T14:33:30.940Z,8.20
2022-10-03T14:37:05.810Z,5.72
2022-10-03T14:40:18.425Z,7.47
2022-10-03T14:43:36.087Z,6.47
2022-10-03T14:46:45.829Z,8.20
2022-10-03T14:49:59.468Z,8.70
2022-10-03T14:53:09.426Z,5.75
2022-10-03T14:56:13.768Z,6.13
2022-10-03T14:59:26.571Z,5.13
2022-10-03T15:02:35.973Z,7.07
2022-10-03T15:05:58.333Z,5.03
2022-10-03T15:09:09.007Z,5.63
2022-10-03T15:12:20.545Z,6.97
2022-10-03T15:15:31.010Z,5.53
2022-10-03T15:18:33.511Z,7.32
2022-10-03T15:21:37.286Z,8.30
2022-10-03T15:24:41.129Z,6.15
2022-10-03T15:27:46.062Z,6.00
2022-10-03T15:30:51.671Z,5.50
2022-10-03T15:33:54.543Z,6.82
2022-10-03T15:37:00.576Z,6.55
2022-10-03T15:40:28.577Z,7.93
2022-10-03T15:43:36.276Z,5.72
2022-10-03T15:47:06.982Z,13.82
2022-10-03T15:50:23.313Z,5.88
2022-10-03T15:56:41.879Z,7.63
2022-10-03T15:59:44.701Z,10.75
2022-10-03T16:02:52.726Z,9.27
2022-10-03T16:06:11.199Z,6.32
2022-10-03T16:09:54.703Z,5.50
2022-10-03T16:13:44.680Z,6.22
2022-10-03T16:17:21.534Z,7.20
2022-10-03T16:20:35.443Z,6.70
2022-10-03T16:23:39.549Z,6.25
2022-10-03T16:26:52.016Z,6.85
2022-10-03T16:30:10.470Z,8.98
2022-10-03T16:33:18.438Z,7.03
2022-10-03T16:36:21.266Z,6.93
2022-10-03T16:39:32.264Z,5.90
2022-10-03T16:42:44.660Z,6.90
2022-10-03T16:45:48.935Z,9.82
2022-10-03T16:48:54.303Z,8.93
2022-10-03T16:52:06.605Z,6.93
2022-10-03T16:55:18.657Z,9.60
2022-10-03T16:58:30.662Z,8.18
2022-10-03T17:01:43.833Z,9.35
2022-10-03T17:04:50.588Z,6.65
2022-10-03T17:08:04.053Z,9.38
2022-10-03T17:11:19.730Z,9.25
2022-10-03T17:14:23.179Z,7.93
2022-10-03T17:17:33.471Z,11.18
2022-10-03T17:20:49.007Z,9.60
2022-10-03T17:23:57.455Z,8.65
2022-10-03T17:30:33.159Z,7.10
2022-10-03T17:33:43.902Z,8.98
2022-10-03T17:40:50.064Z,11.25
2022-10-03T17:44:19.739Z,8.00
2022-10-03T17:47:43.362Z,13.98
2022-10-03T17:50:57.329Z,10.45
2022-10-03T17:54:02.898Z,9.48
2022-10-03T17:57:23.177Z,9.63
2022-10-03T18:00:35.111Z,8.25
2022-10-03T18:03:54.884Z,12.02
2022-10-03T18:07:12.754Z,7.22
2022-10-03T18:14:29.197Z,7.82
2022-10-03T18:18:01.537Z,9.65
2022-10-03T18:21:10.744Z,6.68
2022-10-03T18:24:53.698Z,7.15
2022-10-03T18:28:13.599Z,8.45
2022-10-03T18:31:21.505Z,11.35
2022-10-03T18:34:35.060Z,8.05
2022-10-03T18:37:39.629Z,7.55
2022-10-03T18:40:48.665Z,8.43
2022-10-03T18:44:04.811Z,5.82
2022-10-03T18:47:24.428Z,7.88
2022-10-03T18:51:09.456Z,9.05
2022-10-03T18:54:37.624Z,8.60
2022-10-03T18:57:58.317Z,6.72
2022-10-03T19:04:15.511Z,13.75
2022-10-03T19:07:29.079Z,8.80
2022-10-03T19:10:51.316Z,8.38
2022-10-03T19:14:25.898Z,7.95
2022-10-03T19:17:31.276Z,7.40
2022-10-03T19:20:38.619Z,7.88
2022-10-03T19:23:43.584Z,12.50
2022-10-03T19:26:50.333Z,8.07
2022-10-03T19:29:56.122Z,6.53
2022-10-03T19:33:14.282Z,6.07
2022-10-03T19:36:22.065Z,7.88
2022-10-03T19:39:27.907Z,7.68
2022-10-03T19:42:49.411Z,6.88
2022-10-03T19:46:08.430Z,9.65
2022-10-03T19:49:49.087Z,9.18
2022-10-03T19:52:53.157Z,8.40
2022-10-03T19:55:56.303Z,6.65
2022-10-03T19:59:14.088Z,7.97
2022-10-03T20:02:22.307Z,7.40
2022-10-03T20:05:31.208Z,10.35
2022-10-03T20:08:42.437Z,10.00
2022-10-03T20:11:47.649Z,6.15
2022-10-03T20:14:50.145Z,7.60
2022-10-03T20:18:00.206Z,7.85
2022-10-03T20:21:09.164Z,6.80
2022-10-03T20:24:32.115Z,7.88
2022-10-03T20:31:01.748Z,10.05
2022-10-03T20:41:46.276Z,8.50
2022-10-03T20:48:40.291Z,7.72
2022-10-03T20:52:11.329Z,9.90
2022-10-03T20:55:31.323Z,9.90
2022-10-03T21:02:44.618Z,8.82
2022-10-03T21:05:49.275Z,12.48
2022-10-03T21:08:54.016Z,10.98
2022-10-03T21:11:57.242Z,8.85
2022-10-03T21:15:16.590Z,9.32
2022-10-03T21:18:37.343Z,10.40
2022-10-03T21:21:43.597Z,8.40
2022-10-03T21:25:00.186Z,7.25
2022-10-03T21:28:06.093Z,8.32
2022-10-03T21:31:24.125Z,10.70
2022-10-03T21:34:52.809Z,7.18
2022-10-03T21:38:19.555Z,10.90
2022-10-03T21:41:31.583Z,8.50
2022-10-03T21:44:52.233Z,9.68
2022-10-03T21:51:27.341Z,8.00
2022-10-03T21:54:56.574Z,11.05
2022-10-03T21:58:30.413Z,8.32
2022-10-03T22:01:43.899Z,8.73
2022-10-03T22:04:54.531Z,10.00
2022-10-03T22:08:01.217Z,11.45
2022-10-03T22:11:11.910Z,10.60
2022-10-03T22:14:44.796Z,10.15
2022-10-03T22:18:21.276Z,10.18
2022-10-03T22:21:27.549Z,8.68
2022-10-03T22:24:35.812Z,9.18
2022-10-03T22:27:46.999Z,9.98
2022-10-03T22:31:18.163Z,9.07
2022-10-03T22:34:26.105Z,9.32
2022-10-03T22:37:28.660Z,8.55
2022-10-03T22:46:54.398Z,8.20
2022-10-03T22:50:02.025Z,16.38
2022-10-03T22:53:04.655Z,9.68
2022-10-03T22:56:35.468Z,13.23
2022-10-03T23:00:06.077Z,10.13
2022-10-03T23:03:19.120Z,10.85
2022-10-03T23:06:58.732Z,9.90
2022-10-03T23:10:26.152Z,8.68
2022-10-03T23:13:28.134Z,8.80
2022-10-03T23:16:42.672Z,8.75
2022-10-03T23:20:13.905Z,9.50
2022-10-03T23:23:23.350Z,9.25
2022-10-03T23:26:42.444Z,7.95
2022-10-03T23:30:13.631Z,9.43
2022-10-03T23:33:39.149Z,9.27
2022-10-03T23:37:00.242Z,10.43
2022-10-03T23:40:02.051Z,9.05
2022-10-03T23:43:25.455Z,9.38
2022-10-03T23:46:31.065Z,13.40
2022-10-03T23:49:35.226Z,9.52
2022-10-03T23:52:58.568Z,9.15
2022-10-03T23:56:03.502Z,10.70
2022-10-03T23:59:05.581Z,9.00
